createdAt,value
2022-07-27T00:01:05.772Z,19.90
2022-07-27T00:03:33.649Z,19.90
2022-07-27T00:06:01.382Z,19.90
2022-07-27T00:08:29.160Z,20.00
2022-07-27T00:10:58.340Z,20.20
2022-07-27T00:13:26.316Z,20.30
2022-07-27T00:15:54.130Z,20.10
2022-07-27T00:18:22.231Z,20.20
2022-07-27T00:20:50.220Z,20.40
2022-07-27T00:23:18.090Z,20.60
2022-07-27T00:25:45.831Z,20.60
2022-07-27T00:28:14.930Z,20.60
2022-07-27T00:30:42.710Z,20.80
2022-07-27T00:33:10.558Z,20.80
2022-07-27T00:35:44.837Z,20.70
2022-07-27T00:38:12.686Z,20.80
2022-07-27T00:40:40.603Z,20.80
2022-07-27T00:43:08.428Z,20.60
2022-07-27T00:45:37.626Z,20.40
2022-07-27T00:48:06.231Z,20.40
2022-07-27T00:50:34.047Z,20.30
2022-07-27T00:53:04.772Z,20.40
2022-07-27T00:55:33.348Z,20.20
2022-07-27T00:58:01.621Z,20.20
2022-07-27T01:00:29.581Z,20.30
2022-07-27T01:02:58.828Z,20.40
2022-07-27T01:05:36.745Z,20.10
2022-07-27T01:08:06.704Z,19.90
2022-07-27T01:10:34.884Z,19.60
2022-07-27T01:13:03.327Z,19.70
2022-07-27T01:15:36.768Z,19.40
2022-07-27T01:18:12.443Z,19.60
2022-07-27T01:20:41.075Z,19.80
2022-07-27T01:23:10.897Z,19.90
2022-07-27T01:25:41.117Z,20.00
2022-07-27T01:28:08.870Z,20.00
2022-07-27T01:30:36.656Z,20.20
2022-07-27T01:33:06.027Z,20.20
2022-07-27T01:35:34.204Z,19.90
2022-07-27T01:38:02.065Z,19.80
2022-07-27T01:40:31.391Z,19.90
2022-07-27T01:42:59.177Z,19.90
2022-07-27T01:45:27.108Z,19.90
2022-07-27T01:47:54.908Z,20.00
2022-07-27T01:50:22.764Z,19.90
2022-07-27T01:52:50.525Z,19.80
2022-07-27T01:55:18.275Z,19.70
2022-07-27T01:57:47.362Z,19.60
2022-07-27T02:00:15.619Z,19.60
2022-07-27T02:02:43.439Z,19.40
2022-07-27T02:05:12.439Z,19.50
2022-07-27T02:07:40.847Z,19.60
2022-07-27T02:10:10.154Z,19.60
2022-07-27T02:12:37.080Z,19.60
2022-07-27T02:15:14.867Z,19.60
2022-07-27T02:17:45.084Z,19.30
2022-07-27T02:20:14.252Z,19.20
2022-07-27T02:22:42.194Z,19.10
2022-07-27T02:25:11.087Z,19.20
2022-07-27T02:27:39.138Z,19.30
2022-07-27T02:30:13.180Z,19.40
2022-07-27T02:32:44.410Z,19.60
2022-07-27T02:35:19.875Z,19.50
2022-07-27T02:37:48.699Z,19.40
2022-07-27T02:40:18.174Z,19.20
2022-07-27T02:42:46.492Z,19.20
2022-07-27T02:45:16.265Z,19.00
2022-07-27T02:47:44.668Z,18.80
2022-07-27T02:50:13.182Z,18.80
2022-07-27T02:52:41.469Z,18.70
2022-07-27T02:55:10.461Z,18.60
2022-07-27T02:57:40.984Z,18.70
2022-07-27T03:00:12.392Z,18.70
2022-07-27T03:02:41.508Z,18.90
2022-07-27T03:05:11.571Z,18.90
2022-07-27T03:07:39.547Z,19.00
2022-07-27T03:10:08.099Z,18.80
2022-07-27T03:12:35.884Z,18.80
2022-07-27T03:15:03.819Z,18.70
2022-07-27T03:17:32.807Z,18.70
2022-07-27T03:20:01.884Z,18.50
2022-07-27T03:22:32.441Z,18.50
2022-07-27T03:25:00.489Z,18.30
2022-07-27T03:27:29.062Z,18.40
2022-07-27T03:29:57.007Z,18.20
2022-07-27T03:32:24.871Z,18.10
2022-07-27T03:34:52.687Z,17.90
2022-07-27T03:37:21.774Z,17.90
2022-07-27T03:39:49.648Z,17.70
2022-07-27T03:42:17.389Z,17.90
2022-07-27T03:44:45.332Z,18.10
2022-07-27T03:47:13.074Z,18.10
2022-07-27T03:49:40.838Z,18.30
2022-07-27T03:52:08.616Z,18.30
2022-07-27T03:54:37.710Z,18.30
2022-07-27T03:57:05.652Z,17.90
2022-07-27T03:59:33.445Z,17.70
2022-07-27T04:02:01.296Z,18.00
2022-07-27T04:04:29.237Z,18.10
2022-07-27T04:06:56.968Z,18.10
2022-07-27T04:09:24.910Z,18.00
2022-07-27T04:11:56.134Z,18.10
2022-07-27T04:14:23.904Z,18.10
2022-07-27T04:16:51.732Z,18.10
2022-07-27T04:19:19.539Z,18.10
2022-07-27T04:21:47.312Z,18.30
2022-07-27T04:24:15.534Z,18.30
2022-07-27T04:26:43.323Z,18.20
2022-07-27T04:29:16.899Z,18.10
2022-07-27T04:31:47.848Z,17.90
2022-07-27T04:34:15.691Z,17.80
2022-07-27T04:36:43.458Z,17.80
2022-07-27T04:39:11.786Z,18.00
2022-07-27T04:41:39.854Z,17.80
2022-07-27T04:44:07.625Z,17.70
2022-07-27T04:46:37.120Z,17.70
2022-07-27T04:49:05.136Z,17.70
2022-07-27T04:51:34.770Z,17.80
2022-07-27T04:54:02.847Z,17.90
2022-07-27T04:56:30.642Z,18.10
2022-07-27T04:58:58.458Z,18.20
2022-07-27T05:01:30.375Z,18.10
2022-07-27T05:04:04.094Z,18.10
2022-07-27T05:06:32.896Z,18.00
2022-07-27T05:09:00.938Z,18.10
2022-07-27T05:11:28.691Z,18.00
2022-07-27T05:13:56.559Z,17.90
2022-07-27T05:16:28.458Z,18.20
2022-07-27T05:18:57.326Z,18.20
2022-07-27T05:21:27.276Z,18.10
2022-07-27T05:23:55.622Z,18.10
2022-07-27T05:26:23.462Z,18.20
2022-07-27T05:28:51.443Z,18.30
2022-07-27T05:31:19.696Z,18.10
2022-07-27T05:33:49.793Z,17.80
2022-07-27T05:36:19.143Z,17.90
2022-07-27T05:38:48.297Z,17.50
2022-07-27T05:41:16.587Z,17.40
2022-07-27T05:43:44.581Z,17.30
2022-07-27T05:46:12.475Z,17.50
2022-07-27T05:48:40.412Z,17.80
2022-07-27T05:51:08.350Z,17.80
2022-07-27T05:53:36.379Z,17.60
2022-07-27T05:56:07.875Z,17.10
2022-07-27T05:58:35.681Z,17.40
2022-07-27T06:01:03.666Z,17.70
2022-07-27T06:03:31.669Z,17.80
2022-07-27T06:06:13.610Z,17.90
2022-07-27T06:08:41.476Z,18.10
2022-07-27T06:11:10.981Z,18.20
2022-07-27T06:13:41.937Z,17.90
2022-07-27T06:16:10.829Z,17.70
2022-07-27T06:18:38.941Z,17.90
2022-07-27T06:21:06.862Z,17.90
2022-07-27T06:23:34.897Z,18.00
2022-07-27T06:26:02.986Z,17.90
2022-07-27T06:28:32.205Z,17.90
2022-07-27T06:31:01.273Z,18.00
2022-07-27T06:33:30.751Z,18.20
2022-07-27T06:36:02.008Z,18.20
2022-07-27T06:38:30.546Z,18.10
2022-07-27T06:40:59.020Z,17.90
2022-07-27T06:43:28.698Z,18.20
2022-07-27T06:45:59.395Z,18.50
2022-07-27T06:48:27.724Z,18.50
2022-07-27T06:50:56.220Z,18.80
2022-07-27T06:53:24.403Z,18.90
2022-07-27T06:55:52.152Z,18.90
2022-07-27T06:58:20.057Z,18.70
2022-07-27T07:00:48.229Z,18.60
2022-07-27T07:03:18.502Z,18.80
2022-07-27T07:05:48.508Z,19.10
2022-07-27T07:08:16.362Z,19.00
2022-07-27T07:10:45.773Z,18.90
2022-07-27T07:13:14.071Z,19.00
2022-07-27T07:15:43.283Z,18.90
2022-07-27T07:18:12.476Z,19.10
2022-07-27T07:20:42.432Z,19.10
2022-07-27T07:23:10.539Z,19.00
2022-07-27T07:25:39.166Z,19.00
2022-07-27T07:28:07.947Z,19.10
2022-07-27T07:30:35.927Z,19.10
2022-07-27T07:33:04.101Z,19.00
2022-07-27T07:35:32.422Z,19.00
2022-07-27T07:38:01.532Z,19.00
2022-07-27T07:40:45.406Z,18.90
2022-07-27T07:43:14.190Z,18.90
2022-07-27T07:45:51.181Z,19.00
2022-07-27T07:48:20.738Z,18.90
2022-07-27T07:50:52.225Z,19.10
2022-07-27T07:53:23.138Z,19.20
2022-07-27T07:55:52.009Z,19.10
2022-07-27T07:58:19.951Z,19.40
2022-07-27T08:00:47.875Z,19.70
2022-07-27T08:03:16.242Z,19.90
2022-07-27T08:05:44.223Z,20.10
2022-07-27T08:08:12.326Z,20.30
2022-07-27T08:10:41.448Z,20.30
2022-07-27T08:13:09.621Z,20.30
2022-07-27T08:15:37.411Z,20.40
2022-07-27T08:18:06.162Z,20.60
2022-07-27T08:20:34.765Z,20.60
2022-07-27T08:23:02.698Z,20.70
2022-07-27T08:25:30.705Z,20.80
2022-07-27T08:28:00.177Z,20.90
2022-07-27T08:30:30.507Z,21.00
2022-07-27T08:33:02.552Z,21.20
2022-07-27T08:35:31.840Z,21.20
2022-07-27T08:38:00.845Z,21.20
2022-07-27T08:40:46.309Z,21.20
2022-07-27T08:43:24.444Z,21.20
2022-07-27T08:45:57.799Z,21.10
2022-07-27T08:48:26.555Z,21.20
2022-07-27T08:50:54.421Z,21.20
2022-07-27T08:53:23.148Z,21.40
2022-07-27T08:55:51.364Z,21.30
2022-07-27T08:58:20.533Z,21.10
2022-07-27T09:00:49.886Z,20.70
2022-07-27T09:03:20.840Z,20.90
2022-07-27T09:05:50.867Z,20.90
2022-07-27T09:08:22.395Z,20.80
2022-07-27T09:10:50.957Z,21.10
2022-07-27T09:13:25.674Z,21.40
2022-07-27T09:16:16.895Z,21.30
2022-07-27T09:18:43.531Z,21.30
2022-07-27T09:21:14.588Z,21.70
2022-07-27T09:23:44.031Z,21.70
2022-07-27T09:26:30.962Z,21.70
2022-07-27T09:29:03.687Z,21.50
2022-07-27T09:31:32.180Z,21.10
2022-07-27T09:34:02.205Z,21.00
2022-07-27T09:36:31.348Z,20.80
2022-07-27T09:39:03.143Z,20.80
2022-07-27T09:41:41.347Z,21.20
2022-07-27T09:44:31.255Z,21.50
2022-07-27T09:46:59.315Z,21.70
2022-07-27T09:49:29.492Z,21.90
2022-07-27T09:52:00.534Z,22.10
2022-07-27T09:54:41.918Z,22.00
2022-07-27T09:57:10.160Z,22.30
2022-07-27T09:59:39.266Z,22.50
2022-07-27T10:02:07.750Z,22.50
2022-07-27T10:04:35.631Z,22.60
2022-07-27T10:07:06.336Z,22.70
2022-07-27T10:09:37.833Z,22.60
2022-07-27T10:12:06.157Z,22.70
2022-07-27T10:14:35.166Z,22.40
2022-07-27T10:17:04.808Z,22.30
2022-07-27T10:19:40.774Z,22.40
2022-07-27T10:22:08.563Z,22.30
2022-07-27T10:24:37.405Z,21.90
2022-07-27T10:27:20.558Z,21.90
2022-07-27T10:29:48.843Z,22.20
2022-07-27T10:32:25.347Z,22.10
2022-07-27T10:34:53.153Z,22.10
2022-07-27T10:37:26.892Z,22.60
2022-07-27T10:40:16.034Z,22.90
2022-07-27T10:42:48.991Z,23.00
2022-07-27T10:45:21.330Z,23.30
2022-07-27T10:47:52.282Z,23.40
2022-07-27T10:50:30.741Z,23.40
2022-07-27T10:53:03.542Z,23.50
2022-07-27T10:55:48.153Z,23.50
2022-07-27T10:58:45.819Z,23.00
2022-07-27T11:01:14.670Z,23.10
2022-07-27T11:03:52.604Z,22.90
2022-07-27T11:06:37.639Z,23.00
2022-07-27T11:12:04.653Z,23.10
2022-07-27T11:14:32.504Z,22.90
2022-07-27T11:19:55.592Z,22.60
2022-07-27T11:23:03.153Z,22.50
2022-07-27T11:25:21.780Z,22.40
2022-07-27T11:27:49.834Z,22.50
2022-07-27T11:30:25.312Z,22.60
2022-07-27T11:32:53.540Z,22.60
2022-07-27T11:35:23.017Z,22.90
2022-07-27T11:38:02.436Z,22.90
2022-07-27T11:43:39.054Z,23.10
2022-07-27T11:46:18.501Z,22.90
2022-07-27T11:49:08.303Z,23.10
2022-07-27T11:51:40.588Z,23.40
2022-07-27T11:54:09.782Z,23.70
2022-07-27T11:56:40.126Z,23.80
2022-07-27T11:59:11.516Z,23.60
2022-07-27T12:01:41.619Z,23.50
2022-07-27T12:04:28.154Z,23.70
2022-07-27T12:07:00.782Z,23.90
2022-07-27T12:09:37.909Z,24.30
2022-07-27T12:12:12.410Z,24.10
2022-07-27T12:14:42.401Z,23.70
2022-07-27T12:17:18.999Z,23.70
2022-07-27T12:19:56.605Z,23.60
2022-07-27T12:22:44.616Z,23.70
2022-07-27T12:25:29.463Z,23.90
2022-07-27T12:28:00.104Z,24.40
2022-07-27T12:30:34.106Z,24.20
2022-07-27T12:33:02.499Z,24.30
2022-07-27T12:35:37.312Z,24.30
2022-07-27T12:38:09.173Z,24.20
2022-07-27T12:40:44.920Z,24.20
2022-07-27T12:43:17.428Z,24.10
2022-07-27T12:45:45.777Z,24.30
2022-07-27T12:48:17.398Z,24.60
2022-07-27T12:50:46.696Z,25.00
2022-07-27T12:53:18.003Z,24.90
2022-07-27T12:55:45.857Z,24.30
2022-07-27T12:58:14.905Z,23.90
2022-07-27T13:00:43.620Z,23.70
2022-07-27T13:03:11.535Z,23.80
2022-07-27T13:05:39.283Z,24.30
2022-07-27T13:08:07.870Z,24.20
2022-07-27T13:10:37.699Z,24.60
2022-07-27T13:13:05.652Z,25.10
2022-07-27T13:15:33.733Z,25.20
2022-07-27T13:18:01.575Z,24.90
2022-07-27T13:20:29.686Z,24.90
2022-07-27T13:22:57.557Z,25.00
2022-07-27T13:25:25.327Z,24.70
2022-07-27T13:27:55.109Z,24.90
2022-07-27T13:30:24.546Z,24.80
2022-07-27T13:32:52.528Z,24.30
2022-07-27T13:35:20.315Z,23.90
2022-07-27T13:37:48.039Z,24.00
2022-07-27T13:40:15.840Z,24.50
2022-07-27T13:42:43.571Z,25.10
2022-07-27T13:45:13.008Z,25.30
2022-07-27T13:47:41.779Z,25.20
2022-07-27T13:50:17.773Z,25.40
2022-07-27T13:52:46.865Z,25.40
2022-07-27T13:55:15.266Z,24.50
2022-07-27T13:57:43.298Z,24.10
2022-07-27T14:00:13.499Z,24.10
2022-07-27T14:02:41.866Z,24.10
2022-07-27T14:05:12.934Z,24.50
2022-07-27T14:07:42.322Z,24.70
2022-07-27T14:10:30.235Z,24.90
2022-07-27T14:13:01.621Z,25.30
2022-07-27T14:15:50.589Z,25.20
2022-07-27T14:18:22.229Z,25.00
2022-07-27T14:20:50.038Z,24.80
2022-07-27T14:23:17.853Z,24.50
2022-07-27T14:25:46.191Z,24.50
2022-07-27T14:28:13.985Z,24.50
2022-07-27T14:30:43.052Z,24.20
2022-07-27T14:33:10.822Z,24.30
2022-07-27T14:35:40.931Z,24.20
2022-07-27T14:38:09.406Z,23.90
2022-07-27T14:40:37.700Z,23.90
2022-07-27T14:43:06.225Z,23.70
2022-07-27T14:45:44.500Z,23.60
2022-07-27T14:48:23.124Z,23.50
2022-07-27T14:51:00.880Z,23.80
2022-07-27T14:53:28.636Z,23.70
2022-07-27T14:55:56.384Z,23.60
2022-07-27T14:58:24.271Z,23.40
2022-07-27T15:00:52.609Z,23.50
2022-07-27T15:03:21.891Z,23.70
2022-07-27T15:05:50.993Z,23.60
2022-07-27T15:08:19.856Z,24.00
2022-07-27T15:10:48.054Z,23.90
2022-07-27T15:13:15.784Z,23.70
2022-07-27T15:15:43.958Z,23.70
2022-07-27T15:18:11.860Z,23.90
2022-07-27T15:20:40.989Z,23.90
2022-07-27T15:23:08.788Z,24.20
2022-07-27T15:25:36.644Z,24.10
2022-07-27T15:28:04.636Z,24.00
2022-07-27T15:30:37.827Z,24.10
2022-07-27T15:33:06.318Z,24.40
2022-07-27T15:35:34.207Z,24.40
2022-07-27T15:38:03.401Z,24.20
2022-07-27T15:40:41.545Z,24.20
2022-07-27T15:43:11.739Z,24.20
2022-07-27T15:45:40.507Z,24.10
2022-07-27T15:48:09.921Z,24.20
2022-07-27T15:50:39.038Z,24.30
2022-07-27T15:53:08.594Z,24.20
2022-07-27T15:55:37.744Z,24.20
2022-07-27T15:58:06.379Z,23.80
2022-07-27T16:00:39.478Z,23.90
2022-07-27T16:03:09.784Z,24.00
2022-07-27T16:05:37.865Z,24.10
2022-07-27T16:08:07.499Z,24.30
2022-07-27T16:10:36.620Z,24.30
2022-07-27T16:13:05.469Z,24.10
2022-07-27T16:15:51.276Z,24.00
2022-07-27T16:18:19.262Z,24.00
2022-07-27T16:20:47.178Z,23.50
2022-07-27T16:23:19.023Z,23.50
2022-07-27T16:26:04.046Z,23.40
2022-07-27T16:28:33.371Z,23.40
2022-07-27T16:31:01.226Z,23.70
2022-07-27T16:33:28.999Z,23.70
2022-07-27T16:35:57.199Z,23.20
2022-07-27T16:38:25.508Z,23.40
2022-07-27T16:40:54.731Z,23.60
2022-07-27T16:43:22.800Z,23.80
2022-07-27T16:45:56.575Z,23.80
2022-07-27T16:48:24.427Z,23.80
2022-07-27T16:50:52.161Z,23.80
2022-07-27T16:53:20.026Z,23.90
2022-07-27T16:55:47.806Z,23.70
2022-07-27T16:58:16.891Z,23.40
2022-07-27T17:00:44.916Z,23.40
2022-07-27T17:03:12.920Z,23.40
2022-07-27T17:05:40.727Z,23.30
2022-07-27T17:08:10.894Z,23.30
2022-07-27T17:10:38.875Z,23.40
2022-07-27T17:13:13.463Z,23.20
2022-07-27T17:15:42.909Z,23.30
2022-07-27T17:18:11.157Z,23.10
2022-07-27T17:20:40.172Z,23.00
2022-07-27T17:23:10.002Z,22.90
2022-07-27T17:25:37.804Z,22.70
2022-07-27T17:28:05.898Z,22.80
2022-07-27T17:30:38.160Z,22.70
2022-07-27T17:33:07.903Z,22.90
2022-07-27T17:35:36.100Z,22.90
2022-07-27T17:38:06.685Z,23.10
2022-07-27T17:40:35.160Z,22.70
2022-07-27T17:43:03.085Z,22.70
2022-07-27T17:45:31.215Z,22.80
2022-07-27T17:47:58.949Z,22.90
2022-07-27T17:50:28.071Z,22.90
2022-07-27T17:52:57.716Z,22.80
2022-07-27T17:55:25.652Z,22.60
2022-07-27T17:57:53.410Z,22.60
2022-07-27T18:00:21.772Z,22.50
2022-07-27T18:02:49.630Z,22.40
2022-07-27T18:05:17.405Z,22.50
2022-07-27T18:07:46.464Z,22.40
2022-07-27T18:10:14.260Z,22.60
2022-07-27T18:12:42.092Z,22.60
2022-07-27T18:15:28.067Z,22.40
2022-07-27T18:17:55.910Z,22.30
2022-07-27T18:20:23.922Z,22.30
2022-07-27T18:22:53.061Z,22.30
2022-07-27T18:25:22.256Z,22.30
2022-07-27T18:27:51.142Z,22.10
2022-07-27T18:30:18.944Z,21.80
2022-07-27T18:32:46.777Z,21.70
2022-07-27T18:35:14.928Z,21.80
2022-07-27T18:37:42.966Z,21.80
2022-07-27T18:40:13.372Z,21.90
2022-07-27T18:42:41.413Z,21.80
2022-07-27T18:45:11.465Z,21.70
2022-07-27T18:47:39.575Z,21.60
2022-07-27T18:50:08.621Z,21.70
2022-07-27T18:52:36.799Z,21.90
2022-07-27T18:55:05.045Z,22.10
2022-07-27T18:57:34.174Z,22.30
2022-07-27T19:00:01.931Z,22.40
2022-07-27T19:02:31.781Z,22.30
2022-07-27T19:05:01.239Z,22.20
2022-07-27T19:07:30.751Z,22.20
2022-07-27T19:10:01.151Z,22.10
2022-07-27T19:12:29.475Z,22.30
2022-07-27T19:14:58.719Z,22.30
2022-07-27T19:17:26.511Z,22.30
2022-07-27T19:19:54.317Z,22.30
2022-07-27T19:22:22.087Z,22.20
2022-07-27T19:24:54.681Z,22.20
2022-07-27T19:27:23.065Z,21.90
2022-07-27T19:29:50.818Z,22.00
2022-07-27T19:32:20.158Z,21.80
2022-07-27T19:34:47.887Z,21.60
2022-07-27T19:37:16.184Z,21.50
2022-07-27T19:39:58.493Z,21.40
2022-07-27T19:42:31.765Z,21.30
2022-07-27T19:44:59.496Z,21.10
2022-07-27T19:47:28.602Z,21.00
2022-07-27T19:49:56.357Z,20.90
2022-07-27T19:52:24.120Z,20.60
2022-07-27T19:54:51.890Z,20.40
2022-07-27T19:57:20.584Z,20.30
2022-07-27T19:59:55.735Z,20.20
2022-07-27T20:02:24.993Z,20.00
2022-07-27T20:04:54.202Z,20.00
2022-07-27T20:07:21.963Z,20.10
2022-07-27T20:09:49.683Z,20.00
2022-07-27T20:12:18.252Z,19.90
2022-07-27T20:14:46.042Z,19.90
2022-07-27T20:17:13.947Z,19.80
2022-07-27T20:19:41.749Z,19.80
2022-07-27T20:22:10.850Z,19.70
2022-07-27T20:24:38.572Z,19.60
2022-07-27T20:27:06.315Z,19.50
2022-07-27T20:29:34.305Z,19.60
2022-07-27T20:32:02.061Z,19.50
2022-07-27T20:34:29.997Z,19.40
2022-07-27T20:36:57.925Z,19.10
2022-07-27T20:39:27.052Z,18.80
2022-07-27T20:41:54.897Z,18.80
2022-07-27T20:44:22.884Z,18.80
2022-07-27T20:46:50.669Z,18.80
2022-07-27T20:49:18.934Z,18.70
2022-07-27T20:51:47.017Z,18.80
2022-07-27T20:54:15.543Z,18.80
2022-07-27T20:56:44.661Z,18.80
2022-07-27T20:59:16.334Z,19.00
2022-07-27T21:01:45.352Z,19.00
2022-07-27T21:04:13.183Z,18.80
2022-07-27T21:06:41.100Z,18.70
2022-07-27T21:09:09.192Z,18.40
2022-07-27T21:11:37.087Z,18.40
2022-07-27T21:14:07.620Z,18.40
2022-07-27T21:16:35.513Z,18.30
2022-07-27T21:19:03.414Z,18.20
2022-07-27T21:21:31.294Z,18.10
2022-07-27T21:24:13.313Z,18.00
2022-07-27T21:26:41.287Z,17.80
2022-07-27T21:29:11.839Z,17.70
2022-07-27T21:31:40.311Z,17.60
2022-07-27T21:34:08.984Z,17.50
2022-07-27T21:36:36.752Z,17.60
2022-07-27T21:39:04.839Z,17.80
2022-07-27T21:41:32.633Z,17.90
2022-07-27T21:44:00.456Z,18.20
2022-07-27T21:46:29.726Z,18.40
2022-07-27T21:48:57.559Z,18.40
2022-07-27T21:51:25.389Z,18.60
2022-07-27T21:53:53.144Z,18.60
2022-07-27T21:56:21.063Z,18.70
2022-07-27T21:58:48.859Z,18.80
2022-07-27T22:01:17.493Z,18.80
2022-07-27T22:03:46.856Z,18.60
2022-07-27T22:06:14.795Z,18.40
2022-07-27T22:08:42.826Z,18.30
2022-07-27T22:11:11.149Z,18.00
2022-07-27T22:13:39.051Z,17.90
2022-07-27T22:16:07.454Z,17.80
2022-07-27T22:18:35.562Z,17.60
2022-07-27T22:21:04.901Z,17.60
2022-07-27T22:23:32.806Z,17.50
2022-07-27T22:26:00.890Z,17.30
2022-07-27T22:28:28.783Z,17.30
2022-07-27T22:31:16.544Z,17.20
2022-07-27T22:33:44.715Z,17.20
2022-07-27T22:36:14.060Z,17.00
2022-07-27T22:38:41.842Z,17.00
2022-07-27T22:41:09.691Z,17.10
2022-07-27T22:43:37.526Z,17.10
2022-07-27T22:46:06.101Z,17.00
2022-07-27T22:48:34.013Z,16.80
2022-07-27T22:51:01.883Z,16.80
2022-07-27T22:53:30.989Z,16.80
2022-07-27T22:55:58.782Z,16.90
2022-07-27T22:58:26.961Z,16.90
2022-07-27T23:00:59.077Z,16.80
2022-07-27T23:03:27.499Z,16.90
2022-07-27T23:05:55.339Z,17.00
2022-07-27T23:08:23.077Z,17.00
2022-07-27T23:10:52.234Z,17.10
2022-07-27T23:13:22.810Z,17.10
2022-07-27T23:15:50.967Z,16.90
2022-07-27T23:18:18.994Z,16.90
2022-07-27T23:20:46.767Z,16.90
2022-07-27T23:23:16.284Z,16.90
2022-07-27T23:25:44.765Z,16.80
2022-07-27T23:28:13.888Z,16.70
2022-07-27T23:30:41.728Z,16.70
2022-07-27T23:33:09.715Z,16.70
2022-07-27T23:35:37.622Z,16.70
2022-07-27T23:38:05.441Z,16.90
2022-07-27T23:40:33.206Z,17.00
2022-07-27T23:43:00.985Z,16.80
2022-07-27T23:45:30.067Z,16.60
2022-07-27T23:47:57.815Z,16.60
2022-07-27T23:50:26.501Z,16.50
2022-07-27T23:52:54.220Z,16.60
2022-07-27T23:55:21.980Z,16.80
2022-07-27T23:57:49.743Z,17.00
